Time;durP1;ratioP1;P1;durP2;ratioP2;P2;SDS_P1;SDS_P2;PMS_P1;PMS_P2;Temp;Humidity;BMP_temperature;BMP_pressure;BME280_temperature;BME280_humidity;BME280_pressure;Samples;Min_cycle;Max_cycle;Signal;HPM_P1;HPM_P2
2021/07/08 00:01:22;;;;;;;9.00;2.40;;;;;;;15.58;85.23;101248.53;125870;1092;64355;-87
2021/07/08 00:03:50;;;;;;;5.87;3.60;;;;;;;15.55;85.31;101251.58;125768;1093;64270;-84
2021/07/08 00:06:17;;;;;;;6.87;2.50;;;;;;;15.51;85.54;101251.13;125749;1092;64381;-84
2021/07/08 00:08:44;;;;;;;5.03;2.07;;;;;;;15.44;85.38;101243.06;125424;1093;64204;-85
2021/07/08 00:11:12;;;;;;;4.00;2.30;;;;;;;15.37;85.05;101236.03;125662;1092;64259;-85
2021/07/08 00:13:40;;;;;;;4.47;2.47;;;;;;;15.32;85.09;101231.23;125859;1093;64400;-85
2021/07/08 00:16:08;;;;;;;4.83;2.17;;;;;;;15.26;85.60;101245.40;125558;1092;64644;-86
2021/07/08 00:18:36;;;;;;;5.50;3.27;;;;;;;15.20;85.38;101243.49;125194;1092;64214;-85
2021/07/08 00:21:03;;;;;;;9.07;2.10;;;;;;;15.11;85.54;101236.60;125107;1092;64298;-82
2021/07/08 00:23:30;;;;;;;9.93;2.47;;;;;;;15.04;85.96;101233.88;125018;1093;64214;-81
2021/07/08 00:25:58;;;;;;;4.33;2.60;;;;;;;14.99;86.07;101233.63;124913;1091;64285;-83
2021/07/08 00:28:25;;;;;;;7.33;2.30;;;;;;;14.95;86.39;101235.84;125011;1092;64327;-82
2021/07/08 00:30:52;;;;;;;4.13;2.20;;;;;;;14.93;86.76;101240.55;124962;1093;64304;-82
2021/07/08 00:33:20;;;;;;;4.63;2.10;;;;;;;14.91;86.60;101231.91;124949;1093;64307;-82
2021/07/08 00:35:48;;;;;;;6.57;2.70;;;;;;;14.87;87.11;101235.97;125064;1093;64299;-82
2021/07/08 00:38:16;;;;;;;5.53;2.30;;;;;;;14.84;87.60;101236.36;125030;1093;64673;-82
2021/07/08 00:40:43;;;;;;;4.53;2.30;;;;;;;14.80;87.79;101230.56;125044;1093;64255;-85
2021/07/08 00:43:11;;;;;;;4.70;2.20;;;;;;;14.75;87.63;101232.14;124934;1093;64298;-83
2021/07/08 00:45:39;;;;;;;6.50;1.97;;;;;;;14.68;87.91;101222.23;124881;1093;64234;-82
2021/07/08 00:48:07;;;;;;;7.30;3.13;;;;;;;14.68;88.50;101221.39;125178;1093;64307;-82
2021/07/08 00:50:42;;;;;;;5.87;2.33;;;;;;;14.65;88.23;101227.94;125718;1093;64287;-83
2021/07/08 00:53:14;;;;;;;;;;;;;;;14.67;88.72;101220.56;125360;1092;64324;-83
2021/07/08 00:55:45;;;;;;;7.00;2.70;;;;;;;14.68;88.88;101216.05;125048;1093;64316;-83
2021/07/08 00:58:16;;;;;;;8.43;2.63;;;;;;;14.71;88.83;101217.53;125161;1093;64288;-83
2021/07/08 01:00:43;;;;;;;4.47;2.30;;;;;;;14.73;88.71;101228.83;124934;1093;64645;-84
2021/07/08 01:03:13;;;;;;;3.97;2.30;;;;;;;14.68;88.78;101218.72;125007;1093;64422;-83
2021/07/08 01:05:44;;;;;;;6.70;2.03;;;;;;;14.63;88.72;101219.29;125070;1092;65481;-84
2021/07/08 01:08:12;;;;;;;3.65;2.10;;;;;;;14.59;88.59;101220.68;125042;1092;64406;-84
2021/07/08 01:10:41;;;;;;;5.10;1.97;;;;;;;14.53;88.36;101229.41;125009;1093;64288;-83
2021/07/08 01:13:09;;;;;;;4.93;2.57;;;;;;;14.47;88.52;101220.33;125155;1093;64313;-85
2021/07/08 01:15:36;;;;;;;4.80;2.67;;;;;;;14.43;88.78;101218.22;124993;1093;64281;-84
2021/07/08 01:18:04;;;;;;;6.70;2.83;;;;;;;14.38;89.07;101220.61;125083;1093;64304;-83
2021/07/08 01:20:33;;;;;;;4.70;2.33;;;;;;;14.37;89.44;101216.30;125072;1092;64176;-83
2021/07/08 01:23:00;;;;;;;7.23;2.50;;;;;;;14.38;89.20;101221.43;125059;1093;64409;-83
2021/07/08 01:25:34;;;;;;;4.90;2.70;;;;;;;14.39;89.34;101216.94;124954;1093;64326;-86
2021/07/08 01:28:04;;;;;;;6.20;2.73;;;;;;;14.41;89.38;101220.25;124963;1093;64187;-83
2021/07/08 01:30:31;;;;;;;4.43;2.20;;;;;;;14.45;90.10;101221.50;125101;1092;64282;-84
2021/07/08 01:32:59;;;;;;;3.60;2.87;;;;;;;14.51;89.90;101219.94;124982;1093;64345;-83
2021/07/08 01:35:27;;;;;;;4.07;2.13;;;;;;;14.56;89.69;101215.73;125141;1093;64240;-84
2021/07/08 01:37:55;;;;;;;5.70;2.30;;;;;;;14.59;89.59;101218.02;125131;1093;64310;-84
2021/07/08 01:40:23;;;;;;;4.50;2.50;;;;;;;14.65;89.40;101214.59;125201;1093;64330;-84
2021/07/08 01:42:50;;;;;;;9.57;2.80;;;;;;;14.67;89.65;101204.55;125244;1093;64343;-84
2021/07/08 01:45:21;;;;;;;4.20;2.47;;;;;;;14.70;89.56;101207.86;125340;1093;64292;-85
2021/07/08 01:47:49;;;;;;;5.03;2.90;;;;;;;14.71;89.57;101201.52;125391;1093;64307;-84
2021/07/08 01:50:18;;;;;;;4.43;2.80;;;;;;;14.73;89.14;101205.64;126517;1093;64135;-84
2021/07/08 01:52:47;;;;;;;8.23;3.20;;;;;;;14.77;89.00;101208.73;128312;1093;62128;-85
2021/07/08 01:55:16;;;;;;;7.30;2.90;;;;;;;14.81;89.53;101207.34;125333;1092;64284;-84
2021/07/08 01:57:51;;;;;;;3.53;2.60;;;;;;;14.84;89.49;101209.66;125198;1092;64292;-83
2021/07/08 02:00:20;;;;;;;5.63;2.03;;;;;;;14.89;89.15;101208.04;125572;1093;64307;-85
2021/07/08 02:02:47;;;;;;;5.90;3.83;;;;;;;14.91;89.06;101210.53;125362;1093;64367;-83
2021/07/08 02:05:16;;;;;;;6.63;3.70;;;;;;;14.93;88.63;101197.81;125199;1092;64304;-83
2021/07/08 02:07:44;;;;;;;4.10;2.33;;;;;;;14.94;88.62;101199.48;125052;1092;64310;-84
2021/07/08 02:10:15;;;;;;;6.43;2.50;;;;;;;14.95;88.90;101210.98;125185;1093;64284;-84
2021/07/08 02:12:45;;;;;;;6.87;2.93;;;;;;;14.95;89.37;101227.84;125053;1092;64279;-83
2021/07/08 02:15:14;;;;;;;10.43;6.50;;;;;;;14.94;89.88;101226.20;125078;1092;64282;-82
2021/07/08 02:17:44;;;;;;;6.10;2.93;;;;;;;14.95;89.89;101217.15;125007;1091;64402;-83
2021/07/08 02:20:13;;;;;;;8.40;3.27;;;;;;;14.96;89.76;101223.31;125047;1092;64789;-85
2021/07/08 02:22:40;;;;;;;5.70;2.83;;;;;;;14.97;90.08;101225.80;124997;1093;64272;-82
2021/07/08 02:25:09;;;;;;;5.23;2.97;;;;;;;14.99;89.85;101218.42;125198;1093;64282;-83
2021/07/08 02:27:37;;;;;;;5.50;3.37;;;;;;;15.03;89.94;101224.22;125186;1092;64336;-83
2021/07/08 02:30:16;;;;;;;6.70;2.60;;;;;;;15.09;90.23;101218.11;125269;1092;64288;-84
2021/07/08 02:32:44;;;;;;;7.65;2.85;;;;;;;15.16;89.90;101234.20;125290;1093;64255;-83
2021/07/08 02:35:13;;;;;;;5.97;2.30;;;;;;;15.19;89.95;101239.15;125213;1093;64401;-83
2021/07/08 02:37:40;;;;;;;3.87;2.20;;;;;;;15.21;89.91;101240.61;125103;1092;64320;-83
2021/07/08 02:40:15;;;;;;;5.97;2.40;;;;;;;15.24;89.70;101258.13;125149;1093;64256;-83
2021/07/08 02:42:53;;;;;;;4.77;2.33;;;;;;;15.28;89.33;101246.86;125496;1093;64413;-82
2021/07/08 02:45:29;;;;;;;4.43;2.37;;;;;;;15.32;89.73;101243.78;125109;1093;65159;-83
2021/07/08 02:47:58;;;;;;;5.47;2.13;;;;;;;15.37;89.31;101244.05;125094;1093;64371;-83
2021/07/08 02:50:28;;;;;;;6.67;2.97;;;;;;;15.40;88.94;101228.42;125065;1092;64396;-83
2021/07/08 02:52:56;;;;;;;7.57;2.13;;;;;;;15.42;89.00;101228.24;125240;1093;64301;-83
2021/07/08 02:55:24;;;;;;;5.67;2.27;;;;;;;15.38;88.38;101219.77;125108;1093;64403;-86
2021/07/08 02:57:52;;;;;;;4.80;2.40;;;;;;;15.36;88.68;101215.65;125002;1093;64281;-84
2021/07/08 03:00:22;;;;;;;6.83;2.23;;;;;;;15.33;88.44;101214.20;125010;1093;64314;-83
2021/07/08 03:02:50;;;;;;;4.00;2.57;;;;;;;15.32;88.46;101223.22;125080;1092;64297;-83
2021/07/08 03:05:19;;;;;;;5.90;2.37;;;;;;;15.34;88.49;101231.05;125145;1093;64285;-83
2021/07/08 03:07:46;;;;;;;5.73;2.23;;;;;;;15.35;88.31;101228.20;125005;1093;64282;-83
2021/07/08 03:10:18;;;;;;;7.13;3.13;;;;;;;15.37;88.22;101226.16;125051;1093;64462;-83
2021/07/08 03:12:46;;;;;;;8.50;2.10;;;;;;;15.34;88.18;101237.22;125070;1093;64315;-84
2021/07/08 03:15:15;;;;;;;8.10;2.70;;;;;;;15.31;88.30;101236.80;125101;1093;64291;-83
2021/07/08 03:17:43;;;;;;;6.43;2.10;;;;;;;15.25;87.73;101243.73;125045;1093;64301;-83
2021/07/08 03:20:20;;;;;;;7.83;2.40;;;;;;;15.20;88.38;101230.13;125138;1092;64430;-83
2021/07/08 03:22:49;;;;;;;8.55;2.80;;;;;;;15.16;88.85;101231.53;125022;1093;64310;-83
2021/07/08 03:25:18;;;;;;;6.03;2.43;;;;;;;15.15;88.46;101230.71;125110;1093;64780;-83
2021/07/08 03:27:46;;;;;;;5.43;2.70;;;;;;;15.14;88.23;101233.56;125201;1093;64215;-83
2021/07/08 03:30:18;;;;;;;13.03;3.07;;;;;;;15.09;88.40;101234.97;125021;1092;64262;-83
2021/07/08 03:32:47;;;;;;;5.43;2.67;;;;;;;15.07;88.53;101241.53;125397;1092;64448;-82
2021/07/08 03:35:20;;;;;;;9.50;2.50;;;;;;;15.07;88.87;101249.54;125199;1093;64250;-83
2021/07/08 03:37:48;;;;;;;10.37;2.90;;;;;;;15.06;89.07;101247.88;125541;1093;64259;-82
2021/07/08 03:40:16;;;;;;;10.93;2.83;;;;;;;15.08;88.81;101254.67;125592;1093;64287;-83
2021/07/08 03:42:43;;;;;;;8.00;2.80;;;;;;;15.12;88.72;101254.31;126821;1093;64297;-84
2021/07/08 03:45:12;;;;;;;7.00;2.90;;;;;;;15.17;89.17;101251.88;125374;1093;64362;-84
2021/07/08 03:47:40;;;;;;;11.20;2.65;;;;;;;15.20;88.83;101254.18;125606;1092;64409;-83
2021/07/08 03:50:09;;;;;;;8.40;2.87;;;;;;;15.24;88.79;101250.11;125692;1093;64345;-82
2021/07/08 03:52:41;;;;;;;8.30;2.70;;;;;;;15.26;88.65;101256.91;125608;1093;64211;-84
2021/07/08 03:55:10;;;;;;;7.40;2.77;;;;;;;15.31;88.70;101253.66;124947;1093;64264;-83
2021/07/08 03:57:52;;;;;;;8.30;2.50;;;;;;;15.35;88.34;101244.23;125148;1093;64473;-83
2021/07/08 04:00:25;;;;;;;4.13;2.53;;;;;;;15.36;88.40;101239.70;125081;1093;64320;-87
2021/07/08 04:02:54;;;;;;;6.60;2.70;;;;;;;15.38;88.53;101243.83;125190;1093;64425;-82
2021/07/08 04:05:22;;;;;;;10.17;2.87;;;;;;;15.43;88.38;101241.42;125094;1092;64237;-82
2021/07/08 04:07:49;;;;;;;6.23;2.70;;;;;;;15.48;88.16;101249.68;124978;1093;64275;-81
2021/07/08 04:10:16;;;;;;;6.33;2.20;;;;;;;15.55;88.24;101248.91;125019;1092;64422;-83
2021/07/08 04:12:44;;;;;;;6.90;3.10;;;;;;;15.60;87.96;101257.19;125045;1093;64294;-83
2021/07/08 04:15:12;;;;;;;7.63;2.20;;;;;;;15.61;87.37;101250.81;125192;1093;64348;-85
2021/07/08 04:17:39;;;;;;;5.97;2.20;;;;;;;15.60;87.42;101262.55;125057;1091;64330;-83
2021/07/08 04:20:12;;;;;;;6.70;2.20;;;;;;;15.61;87.64;101265.00;125124;1093;64256;-81
2021/07/08 04:22:39;;;;;;;9.47;2.70;;;;;;;15.64;87.31;101279.83;125343;1092;64384;-83
2021/07/08 04:25:07;;;;;;;6.57;2.60;;;;;;;15.66;87.22;101262.59;124917;1093;64314;-83
2021/07/08 04:27:36;;;;;;;6.17;2.47;;;;;;;15.68;87.05;101240.97;125009;1092;64307;-84
2021/07/08 04:30:08;;;;;;;6.13;2.70;;;;;;;15.70;87.31;101245.13;125090;1092;64211;-85
2021/07/08 04:32:37;;;;;;;6.00;2.30;;;;;;;15.75;87.41;101247.25;125249;1093;64272;-84
2021/07/08 04:35:05;;;;;;;5.90;2.37;;;;;;;15.79;86.77;101243.16;125028;1093;64451;-82
2021/07/08 04:37:40;;;;;;;7.30;2.23;;;;;;;15.82;86.66;101244.61;125998;1093;64631;-85
2021/07/08 04:40:12;;;;;;;6.60;2.33;;;;;;;15.84;86.43;101240.70;127405;1093;64323;-85
2021/07/08 04:42:40;;;;;;;3.77;2.17;;;;;;;15.90;86.60;101244.46;125089;1093;64397;-84
2021/07/08 04:45:09;;;;;;;5.00;2.17;;;;;;;15.94;86.79;101247.55;125193;1092;64304;-84
2021/07/08 04:47:38;;;;;;;7.10;2.50;;;;;;;15.99;86.90;101250.48;125082;1093;64410;-82
2021/07/08 04:50:11;;;;;;;4.77;3.23;;;;;;;16.04;86.79;101248.84;125030;1093;64351;-83
2021/07/08 04:52:38;;;;;;;3.70;1.93;;;;;;;;;;125056;1093;64313;-81
2021/07/08 04:55:08;;;;;;;11.17;3.23;;;;;;;16.07;86.44;101256.49;125184;1093;64278;-82
2021/07/08 04:57:36;;;;;;;3.55;2.35;;;;;;;16.10;86.79;101247.23;126536;1093;64281;-84
2021/07/08 05:00:07;;;;;;;8.70;2.83;;;;;;;16.15;86.58;101250.16;125078;1093;64240;-83
2021/07/08 05:02:39;;;;;;;12.50;2.53;;;;;;;16.19;87.05;101240.69;125265;1093;64292;-82
2021/07/08 05:05:08;;;;;;;13.60;3.50;;;;;;;16.26;87.07;101232.71;125276;1093;64285;-74
2021/07/08 05:07:36;;;;;;;8.83;2.40;;;;;;;16.35;87.59;101230.69;124874;1093;64301;-74
2021/07/08 05:10:06;;;;;;;8.87;2.17;;;;;;;16.47;87.48;101237.13;125004;1093;64203;-75
2021/07/08 05:12:33;;;;;;;16.75;4.35;;;;;;;16.67;87.02;101248.70;124880;1092;64298;-73
2021/07/08 05:15:06;;;;;;;21.07;4.47;;;;;;;16.78;86.15;101254.52;124876;1092;64405;-74
2021/07/08 05:17:33;;;;;;;18.60;4.43;;;;;;;16.91;86.11;101257.25;124670;1093;64287;-73
2021/07/08 05:20:00;;;;;;;14.53;3.97;;;;;;;17.06;85.74;101262.42;124688;1093;64272;-77
2021/07/08 05:22:32;;;;;;;19.00;4.23;;;;;;;17.19;84.90;101273.19;124839;1093;64278;-74
2021/07/08 05:24:59;;;;;;;10.90;4.03;;;;;;;17.32;84.51;101265.15;124859;1092;64415;-73
2021/07/08 05:27:26;;;;;;;16.50;3.73;;;;;;;17.43;84.35;101266.38;124874;1093;64281;-74
2021/07/08 05:29:57;;;;;;;18.90;3.20;;;;;;;17.55;83.29;101261.20;124914;1093;64307;-74
2021/07/08 05:32:24;;;;;;;11.53;2.97;;;;;;;17.66;82.80;101259.75;124781;1093;64387;-76
2021/07/08 05:34:51;;;;;;;8.73;2.77;;;;;;;17.82;82.84;101270.09;124842;1093;64281;-73
2021/07/08 05:37:18;;;;;;;8.50;2.93;;;;;;;17.98;81.92;101274.21;124846;1093;64230;-73
2021/07/08 05:39:45;;;;;;;4.30;2.23;;;;;;;18.10;81.07;101275.19;124905;1093;64287;-73
2021/07/08 05:42:12;;;;;;;5.83;3.10;;;;;;;18.22;80.75;101282.61;124824;1093;64255;-74
2021/07/08 05:44:39;;;;;;;8.30;2.60;;;;;;;18.33;80.15;101279.27;124860;1093;64816;-73
2021/07/08 05:47:06;;;;;;;6.77;2.30;;;;;;;18.40;79.27;101281.92;124843;1091;64452;-74
2021/07/08 05:49:55;;;;;;;7.97;2.70;;;;;;;18.46;79.25;101283.77;124845;1093;64416;-75
2021/07/08 05:52:23;;;;;;;6.83;2.07;;;;;;;18.54;78.84;101287.03;124761;1093;64264;-73
2021/07/08 05:54:50;;;;;;;5.33;2.50;;;;;;;18.59;78.49;101289.08;124905;1093;64285;-73
2021/07/08 05:57:17;;;;;;;8.10;2.50;;;;;;;18.74;78.51;101281.58;124902;1091;64288;-74
2021/07/08 05:59:44;;;;;;;6.60;2.80;;;;;;;18.91;77.57;101290.00;124876;1092;64291;-74
2021/07/08 06:02:12;;;;;;;4.87;2.20;;;;;;;18.98;76.58;101292.64;124708;1093;64962;-73
2021/07/08 06:04:40;;;;;;;8.63;2.70;;;;;;;19.07;77.16;101293.21;124981;1093;64284;-74
2021/07/08 06:07:07;;;;;;;7.03;3.37;;;;;;;19.18;76.79;101291.69;124939;1093;64307;-73
2021/07/08 06:09:34;;;;;;;9.57;2.13;;;;;;;19.30;76.64;101292.64;124887;1093;64298;-73
2021/07/08 06:12:02;;;;;;;5.90;2.30;;;;;;;19.39;75.37;101288.63;124875;1093;64393;-74
2021/07/08 06:14:29;;;;;;;7.53;2.57;;;;;;;19.45;75.69;101293.14;124875;1093;64423;-74
2021/07/08 06:16:56;;;;;;;5.43;2.07;;;;;;;19.51;75.07;101294.95;124968;1093;64325;-74
2021/07/08 06:19:23;;;;;;;5.90;2.30;;;;;;;19.66;75.44;101304.58;124894;1093;64339;-74
2021/07/08 06:21:50;;;;;;;7.50;2.43;;;;;;;19.80;74.55;101306.11;124830;1093;64287;-74
2021/07/08 06:24:17;;;;;;;7.97;2.20;;;;;;;19.98;74.34;101307.18;124876;1092;64206;-74
2021/07/08 06:26:45;;;;;;;4.40;2.00;;;;;;;20.09;73.43;101314.55;124875;1093;64846;-74
2021/07/08 06:29:12;;;;;;;6.23;1.87;;;;;;;20.19;73.82;101322.09;125055;1093;64396;-74
2021/07/08 06:31:39;;;;;;;4.50;1.97;;;;;;;20.27;73.05;101322.63;124792;1092;64760;-73
2021/07/08 06:34:07;;;;;;;5.07;1.73;;;;;;;20.35;73.36;101311.55;124823;1093;64291;-74
2021/07/08 06:36:34;;;;;;;3.93;1.90;;;;;;;20.36;72.87;101313.21;124942;1093;64307;-76
2021/07/08 06:39:04;;;;;;;7.00;2.13;;;;;;;20.41;72.85;101315.23;124853;1093;64364;-74
2021/07/08 06:41:32;;;;;;;4.03;1.90;;;;;;;20.42;72.68;101305.27;125112;1093;64262;-75
2021/07/08 06:43:59;;;;;;;14.85;4.35;;;;;;;20.38;72.17;101307.61;124985;1093;64346;-74
2021/07/08 06:46:28;;;;;;;4.00;2.10;;;;;;;20.32;71.83;101301.23;124733;1092;64288;-75
2021/07/08 06:48:58;;;;;;;4.50;1.93;;;;;;;20.27;72.40;101306.45;124830;1093;64298;-75
2021/07/08 06:51:26;;;;;;;4.30;2.00;;;;;;;20.24;72.58;101306.92;124852;1093;64468;-75
2021/07/08 06:53:55;;;;;;;6.20;2.10;;;;;;;20.23;73.91;101309.83;124794;1093;64314;-74
2021/07/08 06:56:23;;;;;;;4.43;1.80;;;;;;;20.28;74.36;101312.69;125022;1093;64304;-74
2021/07/08 06:58:50;;;;;;;9.60;2.87;;;;;;;20.34;74.44;101318.00;125351;1093;64291;-75
2021/07/08 07:01:17;;;;;;;5.67;2.60;;;;;;;20.43;74.14;101317.70;124765;1092;64349;-74
2021/07/08 07:03:45;;;;;;;5.13;2.30;;;;;;;20.56;73.87;101329.13;124912;1093;64304;-74
2021/07/08 07:06:12;;;;;;;4.65;2.20;;;;;;;20.69;73.47;101325.48;124913;1092;64284;-74
2021/07/08 07:08:42;;;;;;;7.23;2.77;;;;;;;20.84;72.75;101316.17;125273;1093;64288;-74
2021/07/08 07:11:10;;;;;;;7.73;3.33;;;;;;;20.96;71.96;101314.36;124925;1093;65376;-74
2021/07/08 07:13:38;;;;;;;4.80;2.30;;;;;;;21.18;71.57;101311.95;124886;1092;64304;-75
2021/07/08 07:16:05;;;;;;;5.57;2.07;;;;;;;21.39;70.35;101308.71;124887;1093;64428;-76
2021/07/08 07:18:39;;;;;;;3.07;1.73;;;;;;;21.53;70.15;101314.77;124975;1093;64288;-75
2021/07/08 07:21:10;;;;;;;4.85;2.15;;;;;;;21.61;69.28;101310.88;125067;1093;64378;-75
2021/07/08 07:23:39;;;;;;;5.00;1.43;;;;;;;21.73;69.07;101313.61;125166;1093;64285;-74
2021/07/08 07:26:06;;;;;;;2.70;1.27;;;;;;;21.86;68.25;101313.36;124892;1093;64249;-74
2021/07/08 07:28:34;;;;;;;5.77;2.00;;;;;;;22.02;67.35;101313.73;125395;1092;64776;-74
2021/07/08 07:31:02;;;;;;;5.83;2.00;;;;;;;22.17;66.55;101316.77;124856;1093;65519;-77
2021/07/08 07:33:29;;;;;;;6.53;1.90;;;;;;;22.24;66.49;101305.86;124771;1093;64377;-77
2021/07/08 07:35:56;;;;;;;10.77;4.93;;;;;;;22.26;66.33;101301.84;125072;1093;64694;-76
2021/07/08 07:38:24;;;;;;;5.60;1.70;;;;;;;22.34;65.35;101311.48;124896;1092;64361;-74
2021/07/08 07:40:51;;;;;;;4.67;2.30;;;;;;;22.34;64.70;101314.19;124910;1093;64416;-73
2021/07/08 07:43:18;;;;;;;4.50;2.40;;;;;;;22.44;65.46;101324.38;124966;1092;64437;-74
2021/07/08 07:45:46;;;;;;;4.13;1.43;;;;;;;22.49;64.35;101316.38;124988;1092;64284;-76
2021/07/08 07:48:13;;;;;;;8.37;2.10;;;;;;;22.56;64.35;101319.77;124928;1093;64211;-73
2021/07/08 07:50:40;;;;;;;9.63;3.47;;;;;;;22.64;64.42;101329.39;124929;1093;64307;-76
2021/07/08 07:53:07;;;;;;;2.60;1.50;;;;;;;22.66;64.52;101322.67;124902;1092;64359;-74
2021/07/08 07:55:34;;;;;;;6.33;2.00;;;;;;;22.70;64.20;101323.84;125063;1092;64941;-74
2021/07/08 07:58:03;;;;;;;6.50;2.07;;;;;;;22.75;64.03;101315.81;124986;1093;64282;-74
2021/07/08 08:00:30;;;;;;;5.07;2.40;;;;;;;22.84;63.99;101318.14;125041;1093;64392;-74
2021/07/08 08:02:58;;;;;;;5.60;2.00;;;;;;;22.96;63.97;101316.20;125028;1093;65371;-74
2021/07/08 08:10:41;;;;;;;6.10;2.10;;;;;;;23.34;62.84;101317.45;124951;1092;64294;-75
2021/07/08 08:13:09;;;;;;;8.33;2.37;;;;;;;23.38;61.81;101318.61;124987;1092;64243;-75
2021/07/08 08:15:37;;;;;;;4.67;2.70;;;;;;;23.45;61.74;101316.55;125016;1093;64777;-74
2021/07/08 08:18:05;;;;;;;6.50;2.03;;;;;;;23.49;61.05;101325.82;124951;1093;64377;-75
2021/07/08 08:20:34;;;;;;;58.55;46.10;;;;;;;23.57;61.27;101330.83;125006;1092;64310;-77
2021/07/08 08:23:03;;;;;;;12.37;7.00;;;;;;;23.70;61.54;101336.99;125101;1093;64307;-75
2021/07/08 08:25:30;;;;;;;9.83;6.07;;;;;;;23.72;59.80;101340.27;124841;1093;64288;-76
2021/07/08 08:27:59;;;;;;;5.50;2.17;;;;;;;23.72;60.09;101343.80;124915;1093;64301;-74
2021/07/08 08:30:26;;;;;;;4.53;1.67;;;;;;;23.73;59.79;101353.55;125043;1093;64335;-74
2021/07/08 08:32:53;;;;;;;4.47;1.63;;;;;;;23.66;59.72;101347.48;124947;1093;64288;-72
2021/07/08 08:35:21;;;;;;;5.73;2.67;;;;;;;23.66;59.64;101346.67;124906;1093;64313;-72
2021/07/08 08:37:48;;;;;;;4.00;1.70;;;;;;;23.70;59.97;101342.41;124956;1093;64307;-73
2021/07/08 08:40:18;;;;;;;23.85;17.60;;;;;;;23.72;60.00;101340.27;125049;1093;64278;-74
2021/07/08 08:42:45;;;;;;;6.10;2.03;;;;;;;23.76;59.45;101336.85;124897;1093;64371;-73
2021/07/08 08:45:17;;;;;;;5.10;1.53;;;;;;;23.81;59.40;101334.20;125217;1092;64398;-73
2021/07/08 08:48:05;;;;;;;4.93;1.73;;;;;;;23.89;58.81;101341.11;125026;1093;64992;-73
2021/07/08 08:50:52;;;;;;;6.00;1.77;;;;;;;23.94;58.60;101349.30;124882;1093;64336;-73
2021/07/08 08:53:23;;;;;;;10.33;6.47;;;;;;;24.00;58.79;101364.56;124998;1093;64256;-77
2021/07/08 08:55:50;;;;;;;5.55;1.70;;;;;;;24.06;58.54;101365.48;124859;1092;64428;-75
2021/07/08 08:58:20;;;;;;;6.27;2.10;;;;;;;24.10;59.22;101360.36;124879;1092;64539;-74
2021/07/08 09:00:52;;;;;;;6.83;1.70;;;;;;;24.25;59.17;101354.33;124766;1093;64428;-74
2021/07/08 09:03:28;;;;;;;5.43;1.93;;;;;;;24.43;59.26;101351.33;124887;1093;64274;-77
2021/07/08 09:06:06;;;;;;;5.57;2.93;;;;;;;24.53;57.55;101345.26;125072;1093;64299;-75
2021/07/08 09:08:35;;;;;;;5.53;2.10;;;;;;;24.64;57.50;101357.05;124933;1093;64339;-75
2021/07/08 09:11:05;;;;;;;6.27;1.90;;;;;;;24.71;57.32;101358.48;124956;1092;64361;-73
2021/07/08 09:13:55;;;;;;;7.00;2.03;;;;;;;24.76;55.97;101363.98;124925;1093;64326;-74
2021/07/08 09:16:30;;;;;;;8.45;3.60;;;;;;;24.81;55.94;101379.50;124765;1092;64307;-75
2021/07/08 09:19:02;;;;;;;16.30;9.73;;;;;;;24.83;56.07;101367.31;124869;1093;64214;-76
2021/07/08 09:21:31;;;;;;;8.47;2.40;;;;;;;24.93;56.37;101357.66;124856;1093;64355;-76
2021/07/08 09:24:19;;;;;;;4.43;1.60;;;;;;;25.03;56.96;101349.59;124952;1093;65527;-74
2021/07/08 09:27:08;;;;;;;3.10;1.30;;;;;;;25.13;56.09;101348.89;124886;1093;64304;-73
2021/07/08 09:29:43;;;;;;;7.17;1.60;;;;;;;25.09;55.73;101354.01;124860;1091;64295;-74
2021/07/08 09:32:14;;;;;;;5.07;1.33;;;;;;;25.12;55.44;101353.52;124974;1093;64387;-75
2021/07/08 09:34:46;;;;;;;2.37;1.60;;;;;;;25.17;55.64;101350.84;125026;1092;64303;-74
2021/07/08 09:37:15;;;;;;;3.83;2.00;;;;;;;25.29;55.95;101358.87;124981;1093;64233;-76
2021/07/08 09:40:06;;;;;;;6.67;2.00;;;;;;;25.45;55.88;101365.24;128517;1092;61953;-76
2021/07/08 09:42:36;;;;;;;10.70;6.83;;;;;;;25.52;54.89;101360.41;126807;1093;64208;-72
2021/07/08 09:45:08;;;;;;;11.43;8.20;;;;;;;25.54;55.04;101355.53;125032;1093;64291;-73
2021/07/08 09:47:37;;;;;;;12.97;5.77;;;;;;;25.60;54.68;101364.55;124978;1093;64974;-73
2021/07/08 09:50:11;;;;;;;5.53;1.80;;;;;;;25.62;53.70;101357.77;124996;1093;64394;-74
2021/07/08 09:52:39;;;;;;;3.97;1.50;;;;;;;25.69;54.06;101354.02;125116;1093;64285;-74
2021/07/08 09:55:16;;;;;;;6.07;1.50;;;;;;;25.82;54.37;101364.44;124953;1093;64284;-73
2021/07/08 09:57:48;;;;;;;41.33;30.50;;;;;;;25.88;53.61;101357.15;125293;1093;64496;-73
2021/07/08 10:00:19;;;;;;;5.30;1.83;;;;;;;25.96;51.73;101362.94;125024;1093;64297;-74
2021/07/08 10:02:47;;;;;;;3.80;1.40;;;;;;;25.96;53.31;101357.50;124880;1093;64291;-73
2021/07/08 10:05:16;;;;;;;3.57;1.20;;;;;;;26.03;53.83;101352.67;125020;1092;64329;-73
2021/07/08 10:07:44;;;;;;;6.80;3.67;;;;;;;26.09;53.46;101344.53;125146;1092;64253;-74
2021/07/08 10:10:13;;;;;;;5.37;2.10;;;;;;;26.01;52.24;101354.84;124618;1093;64329;-73
2021/07/08 10:12:42;;;;;;;9.10;3.17;;;;;;;26.07;51.41;101357.58;124803;1093;64310;-74
2021/07/08 10:15:10;;;;;;;3.73;1.50;;;;;;;26.10;50.77;101352.44;125155;1093;64320;-73
2021/07/08 10:17:39;;;;;;;4.17;1.57;;;;;;;26.17;51.18;101352.20;124855;1093;64467;-74
2021/07/08 10:20:09;;;;;;;4.30;1.93;;;;;;;26.24;50.80;101347.33;125030;1092;64303;-73
2021/07/08 10:22:38;;;;;;;5.53;1.50;;;;;;;26.28;50.04;101345.72;124943;1092;64863;-78
2021/07/08 10:25:08;;;;;;;4.25;2.10;;;;;;;26.12;50.08;101344.00;124701;1093;64372;-78
2021/07/08 10:27:42;;;;;;;6.00;1.60;;;;;;;26.17;51.27;101335.88;125083;1092;64304;-77
2021/07/08 10:30:11;;;;;;;6.80;1.60;;;;;;;26.20;51.32;101330.75;124937;1092;64304;-76
2021/07/08 10:32:39;;;;;;;5.40;1.60;;;;;;;26.13;50.89;101334.77;125004;1091;65125;-76
2021/07/08 10:35:07;;;;;;;3.07;2.20;;;;;;;26.18;51.95;101326.63;124982;1093;64285;-76
2021/07/08 10:37:40;;;;;;;11.77;1.70;;;;;;;26.42;52.80;101327.84;125082;1093;64290;-76
2021/07/08 10:40:28;;;;;;;5.57;1.80;;;;;;;26.71;51.92;101321.97;124968;1093;64316;-76
2021/07/08 10:43:08;;;;;;;4.27;1.60;;;;;;;26.79;50.10;101326.89;124837;1093;64305;-77
2021/07/08 10:45:35;;;;;;;4.80;1.30;;;;;;;26.79;48.74;101321.45;124910;1093;64307;-76
2021/07/08 10:48:13;;;;;;;4.40;1.30;;;;;;;26.81;49.90;101323.91;125026;1093;64282;-76
2021/07/08 10:50:46;;;;;;;2.90;1.30;;;;;;;27.03;49.98;101315.50;124752;1093;64291;-76
2021/07/08 10:53:19;;;;;;;5.03;1.50;;;;;;;27.16;47.31;101309.55;124751;1093;64424;-75
2021/07/08 10:55:59;;;;;;;4.23;1.17;;;;;;;27.16;46.78;101306.82;125489;1093;64233;-77
2021/07/08 10:58:47;;;;;;;4.53;1.30;;;;;;;27.24;48.35;101311.77;125079;1093;65324;-78
2021/07/08 11:01:25;;;;;;;3.80;1.33;;;;;;;27.31;48.01;101316.09;125111;1093;64252;-77
2021/07/08 11:03:54;;;;;;;3.37;1.30;;;;;;;27.33;47.46;101305.74;125426;1093;64421;-75
2021/07/08 11:06:25;;;;;;;3.57;1.00;;;;;;;27.34;46.28;101305.48;125431;1093;64230;-75
2021/07/08 11:09:17;;;;;;;5.27;1.40;;;;;;;27.28;45.85;101308.48;125157;1093;64301;-74
2021/07/08 11:11:50;;;;;;;4.07;1.03;;;;;;;27.28;46.51;101303.84;125066;1091;64285;-74
2021/07/08 11:14:19;;;;;;;3.75;1.30;;;;;;;27.31;45.93;101311.48;125117;1093;64391;-75
2021/07/08 11:16:53;;;;;;;2.83;1.30;;;;;;;27.40;45.74;101311.75;125215;1092;64187;-75
2021/07/08 11:19:20;;;;;;;3.07;1.10;;;;;;;27.45;46.67;101303.56;125132;1093;64368;-73
2021/07/08 11:22:10;;;;;;;2.87;1.10;;;;;;;27.57;48.02;101300.57;125028;1093;64211;-74
2021/07/08 11:24:44;;;;;;;3.87;1.40;;;;;;;27.75;48.19;101288.27;124960;1093;65425;-73
2021/07/08 11:27:17;;;;;;;4.23;1.50;;;;;;;28.01;48.76;101292.60;124918;1093;64304;-73
2021/07/08 11:29:48;;;;;;;4.47;1.37;;;;;;;28.23;46.97;101285.97;124985;1092;64412;-73
2021/07/08 11:33:01;;;;;;;5.17;1.40;;;;;;;28.41;47.13;101287.23;124858;1093;64343;-73
2021/07/08 11:35:37;;;;;;;5.47;1.70;;;;;;;28.62;45.62;101286.06;125028;1093;64287;-73